createdAt,value
2018-05-07T00:00:55.681Z,0.00
2018-05-07T00:01:55.676Z,0.00
2018-05-07T00:02:55.669Z,0.00
2018-05-07T00:03:55.664Z,0.00
2018-05-07T00:04:55.660Z,0.00
2018-05-07T00:05:55.795Z,0.00
2018-05-07T00:06:55.736Z,0.00
2018-05-07T00:07:55.650Z,0.00
2018-05-07T00:08:55.640Z,0.00
2018-05-07T00:09:55.669Z,0.00
2018-05-07T00:10:55.625Z,0.00
2018-05-07T00:11:55.624Z,0.00
2018-05-07T00:12:55.616Z,0.00
2018-05-07T00:13:55.614Z,0.00
2018-05-07T00:14:55.607Z,0.00
2018-05-07T00:15:55.604Z,0.00
2018-05-07T00:16:55.600Z,0.00
2018-05-07T00:17:55.589Z,0.00
2018-05-07T00:18:55.582Z,0.00
2018-05-07T00:19:55.585Z,0.00
2018-05-07T00:20:55.573Z,0.00
2018-05-07T00:21:55.571Z,0.00
2018-05-07T00:22:55.568Z,0.00
2018-05-07T00:23:55.569Z,0.00
2018-05-07T00:24:55.552Z,0.00
2018-05-07T00:25:55.549Z,0.00
2018-05-07T00:26:55.541Z,0.00
2018-05-07T00:27:55.538Z,0.00
2018-05-07T00:28:55.563Z,0.00
2018-05-07T00:29:55.527Z,0.00
2018-05-07T00:30:55.522Z,0.00
2018-05-07T00:31:55.512Z,0.00
2018-05-07T00:32:55.508Z,0.00
2018-05-07T00:33:55.501Z,0.00
2018-05-07T00:34:55.533Z,0.00
2018-05-07T00:35:55.492Z,0.00
2018-05-07T00:36:55.488Z,0.00
2018-05-07T00:37:55.484Z,0.00
2018-05-07T00:38:55.476Z,0.00
2018-05-07T00:39:55.469Z,0.00
2018-05-07T00:40:55.464Z,0.00
2018-05-07T00:41:55.470Z,0.00
2018-05-07T00:42:55.456Z,0.00
2018-05-07T00:43:55.449Z,0.00
2018-05-07T00:44:55.446Z,0.00
2018-05-07T00:45:55.434Z,0.00
2018-05-07T00:46:55.431Z,0.00
2018-05-07T00:47:55.424Z,0.00
2018-05-07T00:48:55.423Z,0.00
2018-05-07T00:49:55.415Z,0.00
2018-05-07T00:50:55.410Z,0.00
2018-05-07T00:51:55.399Z,0.00
2018-05-07T00:52:55.400Z,0.00
2018-05-07T00:53:55.389Z,0.00
2018-05-07T00:54:55.387Z,0.00
2018-05-07T00:55:55.380Z,0.00
2018-05-07T00:56:55.381Z,0.00
2018-05-07T00:57:55.374Z,0.00
2018-05-07T00:58:55.365Z,0.00
2018-05-07T00:59:55.359Z,0.00
2018-05-07T01:00:55.353Z,0.00
2018-05-07T01:01:55.347Z,0.00
2018-05-07T01:02:55.341Z,0.00
2018-05-07T01:03:55.336Z,0.00
2018-05-07T01:04:55.327Z,0.00
2018-05-07T01:05:55.332Z,0.00
2018-05-07T01:06:55.320Z,0.00
2018-05-07T01:07:55.308Z,0.00
2018-05-07T01:08:55.305Z,0.00
2018-05-07T01:09:55.302Z,0.00
2018-05-07T01:10:55.295Z,0.00
2018-05-07T01:11:55.296Z,0.00
2018-05-07T01:12:55.280Z,0.00
2018-05-07T01:13:55.276Z,0.00
2018-05-07T01:14:55.272Z,0.00
2018-05-07T01:15:55.269Z,0.00
2018-05-07T01:16:55.259Z,0.00
2018-05-07T01:17:55.257Z,0.00
2018-05-07T01:18:55.247Z,0.00
2018-05-07T01:19:55.240Z,0.00
2018-05-07T01:20:55.259Z,0.00
2018-05-07T01:21:55.231Z,0.00
2018-05-07T01:22:55.227Z,0.00
2018-05-07T01:23:55.221Z,0.00
2018-05-07T01:24:55.212Z,0.00
2018-05-07T01:25:55.206Z,0.00
2018-05-07T01:26:55.203Z,0.00
2018-05-07T01:27:55.197Z,0.00
2018-05-07T01:28:55.191Z,0.00
2018-05-07T01:29:55.185Z,0.00
2018-05-07T01:30:55.177Z,0.00
2018-05-07T01:31:55.168Z,0.00
2018-05-07T01:32:55.169Z,0.00
2018-05-07T01:33:55.162Z,0.00
2018-05-07T01:34:55.152Z,0.00
2018-05-07T01:35:55.145Z,0.00
2018-05-07T01:36:55.152Z,0.00
2018-05-07T01:37:55.138Z,0.00
2018-05-07T01:38:55.130Z,0.00
2018-05-07T01:39:55.858Z,0.00
2018-05-07T01:40:55.123Z,0.00
2018-05-07T01:41:55.111Z,0.00
2018-05-07T01:42:55.111Z,0.00
2018-05-07T01:43:55.104Z,0.00
2018-05-07T01:44:55.096Z,0.00
2018-05-07T01:45:55.091Z,0.00
2018-05-07T01:46:55.084Z,0.00
2018-05-07T01:47:55.074Z,0.00
2018-05-07T01:48:55.074Z,0.00
2018-05-07T01:49:55.064Z,0.00
2018-05-07T01:50:55.059Z,0.00
2018-05-07T01:51:55.053Z,0.00
2018-05-07T01:52:55.051Z,0.00
2018-05-07T01:53:55.040Z,0.00
2018-05-07T01:54:55.033Z,0.00
2018-05-07T01:55:55.025Z,0.00
2018-05-07T01:56:55.023Z,0.00
2018-05-07T01:57:55.017Z,0.00
2018-05-07T01:58:55.014Z,0.00
2018-05-07T01:59:55.011Z,0.00
2018-05-07T02:00:55.001Z,0.00
2018-05-07T02:01:54.994Z,0.00
2018-05-07T02:02:54.986Z,0.00
2018-05-07T02:03:54.982Z,0.00
2018-05-07T02:04:54.979Z,0.00
2018-05-07T02:05:54.970Z,0.00
2018-05-07T02:06:54.967Z,0.00
2018-05-07T02:07:54.953Z,0.00
2018-05-07T02:08:54.949Z,0.00
2018-05-07T02:09:54.943Z,0.00
2018-05-07T02:10:54.938Z,0.00
2018-05-07T02:11:54.932Z,0.00
2018-05-07T02:12:54.933Z,0.00
2018-05-07T02:13:54.920Z,0.00
2018-05-07T02:14:54.916Z,0.00
2018-05-07T02:15:54.904Z,0.00
2018-05-07T02:16:54.901Z,0.00
2018-05-07T02:17:54.897Z,0.00
2018-05-07T02:18:54.889Z,0.00
2018-05-07T02:19:54.887Z,0.00
2018-05-07T02:20:54.871Z,0.00
2018-05-07T02:21:54.865Z,0.00
2018-05-07T02:22:54.860Z,0.00
2018-05-07T02:23:54.861Z,0.00
2018-05-07T02:24:54.852Z,0.00
2018-05-07T02:25:54.852Z,0.00
2018-05-07T02:26:54.841Z,0.00
2018-05-07T02:27:54.833Z,0.00
2018-05-07T02:28:54.825Z,0.00
2018-05-07T02:29:54.818Z,0.00
2018-05-07T02:30:54.814Z,0.00
2018-05-07T02:31:54.808Z,0.00
2018-05-07T02:32:54.802Z,0.00
2018-05-07T02:33:54.794Z,0.00
2018-05-07T02:34:54.785Z,0.00
2018-05-07T02:35:54.784Z,0.00
2018-05-07T02:36:54.773Z,0.00
2018-05-07T02:37:54.782Z,0.00
2018-05-07T02:38:54.836Z,0.00
2018-05-07T02:39:54.759Z,0.00
2018-05-07T02:40:54.747Z,0.00
2018-05-07T02:41:54.742Z,0.00
2018-05-07T02:42:54.735Z,0.00
2018-05-07T02:43:54.731Z,0.00
2018-05-07T02:44:54.725Z,0.00
2018-05-07T02:45:54.718Z,0.00
2018-05-07T02:46:54.735Z,0.00
2018-05-07T02:47:54.706Z,0.00
2018-05-07T02:48:54.697Z,0.00
2018-05-07T02:49:54.695Z,0.00
2018-05-07T02:50:54.686Z,0.00
2018-05-07T02:51:54.682Z,0.00
2018-05-07T02:52:54.678Z,0.00
2018-05-07T02:53:54.669Z,0.00
2018-05-07T02:54:54.662Z,0.00
2018-05-07T02:55:54.651Z,0.00
2018-05-07T02:56:54.648Z,0.00
2018-05-07T02:57:54.642Z,0.00
2018-05-07T02:58:54.636Z,0.00
2018-05-07T02:59:54.633Z,0.00
2018-05-07T03:00:54.624Z,0.00
2018-05-07T03:01:54.642Z,0.00
2018-05-07T03:02:54.611Z,0.00
2018-05-07T03:03:54.600Z,0.00
2018-05-07T03:04:54.597Z,0.00
2018-05-07T03:05:54.596Z,0.00
2018-05-07T03:06:54.588Z,0.00
2018-05-07T03:07:54.577Z,0.00
2018-05-07T03:08:54.571Z,0.00
2018-05-07T03:09:54.565Z,0.00
2018-05-07T03:10:54.558Z,0.00
2018-05-07T03:11:54.551Z,0.00
2018-05-07T03:12:54.546Z,0.00
2018-05-07T03:13:54.537Z,0.00
2018-05-07T03:14:54.533Z,0.00
2018-05-07T03:15:54.529Z,0.00
2018-05-07T03:16:54.516Z,0.00
2018-05-07T03:17:54.514Z,0.00
2018-05-07T03:18:54.510Z,0.00
2018-05-07T03:19:54.500Z,0.00
2018-05-07T03:20:54.491Z,0.00
2018-05-07T03:21:54.501Z,0.00
2018-05-07T03:22:54.480Z,0.00
2018-05-07T03:23:54.471Z,0.00
2018-05-07T03:24:54.464Z,0.00
2018-05-07T03:25:54.461Z,0.00
2018-05-07T03:26:54.454Z,0.00
2018-05-07T03:27:54.451Z,0.00
2018-05-07T03:28:54.444Z,0.00
2018-05-07T03:29:54.434Z,0.00
2018-05-07T03:30:54.439Z,0.00
2018-05-07T03:31:54.422Z,0.00
2018-05-07T03:32:54.415Z,0.00
2018-05-07T03:33:54.408Z,0.00
2018-05-07T03:34:54.400Z,5.63
2018-05-07T03:35:54.395Z,5.63
2018-05-07T03:36:54.397Z,5.63
2018-05-07T03:37:54.380Z,5.63
2018-05-07T03:38:54.382Z,5.63
2018-05-07T03:39:54.366Z,5.63
2018-05-07T03:40:54.363Z,11.25
2018-05-07T03:41:54.351Z,11.25
2018-05-07T03:42:54.348Z,11.25
2018-05-07T03:43:54.351Z,11.25
2018-05-07T03:44:54.357Z,16.88
2018-05-07T03:45:54.327Z,16.88
2018-05-07T03:46:54.328Z,16.88
2018-05-07T03:47:54.318Z,16.88
2018-05-07T03:48:54.306Z,22.50
2018-05-07T03:49:54.302Z,22.50
2018-05-07T03:50:54.292Z,22.50
2018-05-07T03:51:54.296Z,28.13
2018-05-07T03:52:54.281Z,28.13
2018-05-07T03:53:54.280Z,28.13
2018-05-07T03:54:54.271Z,33.75
2018-05-07T03:55:54.262Z,33.75
2018-05-07T03:56:54.250Z,39.38
2018-05-07T03:57:54.247Z,39.38
2018-05-07T03:58:54.242Z,45.00
2018-05-07T03:59:54.246Z,45.00
2018-05-07T04:00:54.225Z,50.63
2018-05-07T04:01:54.223Z,50.63
2018-05-07T04:02:54.215Z,56.25
2018-05-07T04:03:54.207Z,56.25
2018-05-07T04:04:54.198Z,61.88
2018-05-07T04:05:54.192Z,61.88
2018-05-07T04:06:54.192Z,67.50
2018-05-07T04:07:54.180Z,67.50
2018-05-07T04:08:54.175Z,73.13
2018-05-07T04:09:54.166Z,73.13
2018-05-07T04:10:54.161Z,78.75
2018-05-07T04:11:54.155Z,78.75
2018-05-07T04:12:54.145Z,84.38
2018-05-07T04:13:54.142Z,90.00
2018-05-07T04:14:54.135Z,90.00
2018-05-07T04:15:54.129Z,95.63
2018-05-07T04:16:54.119Z,95.63
2018-05-07T04:17:54.115Z,101.25
2018-05-07T04:18:54.106Z,101.25
2018-05-07T04:19:54.099Z,106.88
2018-05-07T04:20:54.091Z,112.50
2018-05-07T04:21:54.086Z,112.50
2018-05-07T04:22:54.080Z,118.13
2018-05-07T04:23:54.072Z,118.13
2018-05-07T04:24:54.066Z,123.75
2018-05-07T04:25:54.067Z,129.38
2018-05-07T04:26:54.052Z,129.38
2018-05-07T04:27:54.043Z,135.00
2018-05-07T04:28:54.040Z,135.00
2018-05-07T04:29:54.035Z,140.63
2018-05-07T04:30:54.028Z,146.25
2018-05-07T04:31:54.020Z,146.25
2018-05-07T04:32:54.012Z,146.25
2018-05-07T04:33:54.008Z,146.25
2018-05-07T04:34:54.003Z,151.88
2018-05-07T04:35:53.995Z,151.88
2018-05-07T04:36:53.988Z,157.50
2018-05-07T04:37:53.981Z,163.13
2018-05-07T04:38:53.971Z,163.13
2018-05-07T04:39:53.960Z,174.38
2018-05-07T04:40:53.956Z,168.75
2018-05-07T04:41:53.947Z,180.00
2018-05-07T04:42:53.945Z,185.63
2018-05-07T04:43:53.938Z,292.50
2018-05-07T04:44:53.931Z,388.13
2018-05-07T04:45:53.919Z,388.13
2018-05-07T04:46:53.919Z,399.38
2018-05-07T04:47:53.906Z,405.00
2018-05-07T04:48:53.936Z,421.88
2018-05-07T04:49:53.899Z,511.88
2018-05-07T04:50:53.892Z,568.13
2018-05-07T04:51:53.886Z,562.50
2018-05-07T04:52:53.881Z,528.75
2018-05-07T04:53:53.870Z,590.63
2018-05-07T04:54:53.866Z,669.38
2018-05-07T04:55:53.858Z,697.50
2018-05-07T04:56:53.853Z,720.00
2018-05-07T04:57:53.842Z,708.75
2018-05-07T04:58:53.839Z,725.63
2018-05-07T04:59:53.831Z,725.63
2018-05-07T05:00:53.824Z,691.88
2018-05-07T05:01:53.816Z,663.75
2018-05-07T05:02:53.815Z,708.75
2018-05-07T05:03:53.813Z,759.38
2018-05-07T05:04:53.803Z,810.00
2018-05-07T05:05:53.801Z,838.13
2018-05-07T05:06:53.791Z,883.13
2018-05-07T05:07:53.788Z,956.25
2018-05-07T05:08:53.784Z,984.38
2018-05-07T05:09:53.777Z,956.25
2018-05-07T05:10:53.770Z,956.25
2018-05-07T05:11:53.766Z,1029.38
2018-05-07T05:12:53.762Z,1096.88
2018-05-07T05:13:53.753Z,1046.25
2018-05-07T05:14:53.769Z,1057.50
2018-05-07T05:15:53.769Z,1113.75
2018-05-07T05:16:53.739Z,1203.75
2018-05-07T05:17:53.737Z,1260.00
2018-05-07T05:18:53.725Z,1389.38
2018-05-07T05:19:53.725Z,1411.88
2018-05-07T05:20:53.724Z,1473.75
2018-05-07T05:21:53.714Z,1473.75
2018-05-07T05:22:53.727Z,1451.25
2018-05-07T05:23:53.707Z,1468.13
2018-05-07T05:24:53.705Z,1575.00
2018-05-07T05:25:53.701Z,1676.25
2018-05-07T05:26:53.698Z,1811.25
2018-05-07T05:27:53.688Z,1777.50
2018-05-07T05:28:53.686Z,1687.50
2018-05-07T05:29:53.681Z,1681.88
2018-05-07T05:30:53.678Z,1665.00
2018-05-07T05:31:53.675Z,1659.38
2018-05-07T05:32:53.668Z,1771.88
2018-05-07T05:33:53.670Z,1991.25
2018-05-07T05:34:53.664Z,2019.38
2018-05-07T05:35:53.660Z,1884.38
2018-05-07T05:36:53.656Z,1805.63
2018-05-07T05:37:53.654Z,1890.00
2018-05-07T05:38:53.656Z,2002.50
2018-05-07T05:39:53.644Z,2041.88
2018-05-07T05:40:53.648Z,2064.38
2018-05-07T05:41:53.660Z,2221.88
2018-05-07T05:42:53.641Z,2283.75
2018-05-07T05:43:53.633Z,2334.38
2018-05-07T05:44:53.632Z,2210.63
2018-05-07T05:45:53.635Z,2165.63
2018-05-07T05:46:53.632Z,2244.38
2018-05-07T05:47:53.627Z,2261.25
2018-05-07T05:48:53.624Z,2216.25
2018-05-07T05:49:53.630Z,2131.88
2018-05-07T05:50:53.618Z,2587.50
2018-05-07T05:51:53.615Z,2446.88
2018-05-07T05:52:53.617Z,2486.25
2018-05-07T05:53:53.612Z,2486.25
2018-05-07T05:54:53.615Z,2677.50
2018-05-07T05:55:53.606Z,2610.00
2018-05-07T05:56:53.608Z,2621.25
2018-05-07T05:57:53.616Z,2716.88
2018-05-07T05:58:53.602Z,2671.88
2018-05-07T05:59:53.606Z,2120.63
2018-05-07T06:00:53.604Z,1186.88
2018-05-07T06:01:53.603Z,1125.00
2018-05-07T06:02:53.603Z,1158.75
2018-05-07T06:03:53.680Z,1231.88
2018-05-07T06:04:53.598Z,1721.25
2018-05-07T06:05:53.596Z,2677.50
2018-05-07T06:06:53.596Z,2998.13
2018-05-07T06:07:53.595Z,3099.38
2018-05-07T06:08:53.641Z,3065.63
2018-05-07T06:09:53.587Z,3105.00
2018-05-07T06:10:53.593Z,3403.13
2018-05-07T06:11:53.591Z,3380.63
2018-05-07T06:12:53.588Z,3318.75
2018-05-07T06:13:53.590Z,3369.38
2018-05-07T06:14:53.707Z,3403.13
2018-05-07T06:15:53.586Z,3330.00
2018-05-07T06:16:53.581Z,2289.38
2018-05-07T06:17:53.587Z,1406.25
2018-05-07T06:18:53.584Z,1243.13
2018-05-07T06:19:53.583Z,1108.13
2018-05-07T06:20:53.581Z,793.13
2018-05-07T06:21:53.584Z,579.38
2018-05-07T06:22:53.590Z,562.50
2018-05-07T06:23:53.579Z,483.75
2018-05-07T06:24:53.590Z,444.38
2018-05-07T06:25:53.582Z,450.00
2018-05-07T06:26:53.589Z,466.88
2018-05-07T06:27:53.582Z,483.75
2018-05-07T06:28:53.586Z,613.13
2018-05-07T06:29:53.586Z,579.38
2018-05-07T06:30:53.584Z,1209.38
2018-05-07T06:31:53.579Z,2936.25
2018-05-07T06:32:53.580Z,3408.75
2018-05-07T06:33:53.578Z,3307.50
2018-05-07T06:34:53.587Z,3375.00
2018-05-07T06:35:53.573Z,3515.63
2018-05-07T06:36:53.577Z,3453.75
2018-05-07T06:37:53.572Z,2761.88
2018-05-07T06:38:53.578Z,1423.13
2018-05-07T06:39:53.576Z,613.13
2018-05-07T06:40:53.581Z,601.88
2018-05-07T06:41:53.576Z,562.50
2018-05-07T06:42:53.576Z,607.50
2018-05-07T06:43:53.575Z,1704.38
2018-05-07T06:44:53.575Z,3144.38
2018-05-07T06:45:53.575Z,3774.38
2018-05-07T06:46:53.573Z,3701.25
2018-05-07T06:47:53.620Z,3943.13
2018-05-07T06:48:53.792Z,4196.25
2018-05-07T06:49:53.732Z,4123.13
2018-05-07T06:50:53.586Z,4303.13
2018-05-07T06:51:53.683Z,4590.00
2018-05-07T06:52:53.707Z,4702.50
2018-05-07T06:53:53.650Z,4044.38
2018-05-07T06:54:53.603Z,2317.50
2018-05-07T06:55:53.598Z,2233.13
2018-05-07T06:56:53.570Z,3605.63
2018-05-07T06:57:53.575Z,2418.75
2018-05-07T06:58:53.585Z,1198.13
2018-05-07T06:59:53.573Z,1901.25
2018-05-07T07:00:53.576Z,4308.75
2018-05-07T07:01:53.574Z,4876.88
2018-05-07T07:02:53.732Z,5017.50
2018-05-07T07:03:53.581Z,4786.88
2018-05-07T07:04:53.580Z,4370.63
2018-05-07T07:05:53.581Z,4488.75
2018-05-07T07:06:53.579Z,4348.13
2018-05-07T07:07:53.585Z,4989.38
2018-05-07T07:08:53.591Z,5146.88
2018-05-07T07:09:53.589Z,4933.13
2018-05-07T07:10:53.587Z,5107.50
2018-05-07T07:11:53.588Z,5580.00
2018-05-07T07:12:53.588Z,5478.75
2018-05-07T07:13:53.595Z,5169.38
2018-05-07T07:14:53.594Z,5113.13
2018-05-07T07:15:53.605Z,4978.13
2018-05-07T07:16:53.604Z,5101.88
2018-05-07T07:17:53.605Z,5090.63
2018-05-07T07:18:53.615Z,5034.38
2018-05-07T07:19:53.612Z,5214.38
2018-05-07T07:20:53.622Z,5388.75
2018-05-07T07:21:53.720Z,5518.13
2018-05-07T07:22:53.630Z,5501.25
2018-05-07T07:23:53.621Z,5253.75
2018-05-07T07:24:53.625Z,5113.13
2018-05-07T07:25:53.638Z,5068.13
2018-05-07T07:26:53.643Z,5186.25
2018-05-07T07:27:53.741Z,5450.63
2018-05-07T07:28:53.651Z,5506.88
2018-05-07T07:29:53.646Z,5641.88
2018-05-07T07:30:53.657Z,5934.38
2018-05-07T07:31:53.669Z,6097.50
2018-05-07T07:32:53.664Z,6277.50
2018-05-07T07:33:53.838Z,5996.25
2018-05-07T07:34:53.667Z,5152.50
2018-05-07T07:35:53.667Z,5326.88
2018-05-07T07:36:53.679Z,6159.38
2018-05-07T07:37:53.683Z,6491.25
2018-05-07T07:38:53.689Z,6361.88
2018-05-07T07:39:53.716Z,5889.38
2018-05-07T07:40:53.696Z,5647.50
2018-05-07T07:41:53.705Z,6018.75
2018-05-07T07:42:53.746Z,6406.88
2018-05-07T07:43:53.718Z,6468.75
2018-05-07T07:44:53.724Z,6361.88
2018-05-07T07:45:53.729Z,6018.75
2018-05-07T07:46:53.736Z,6204.38
2018-05-07T07:47:53.742Z,6789.38
2018-05-07T07:48:53.752Z,6862.50
2018-05-07T07:49:53.777Z,6795.00
2018-05-07T07:50:53.764Z,6817.50
2018-05-07T07:51:53.782Z,6676.88
2018-05-07T07:52:53.769Z,6592.50
2018-05-07T07:53:53.849Z,6716.25
2018-05-07T07:54:53.795Z,6750.00
2018-05-07T07:55:53.802Z,7065.00
2018-05-07T07:56:53.798Z,7081.88
2018-05-07T07:57:53.800Z,6519.38
2018-05-07T07:58:53.802Z,6676.88
2018-05-07T07:59:53.811Z,7233.75
2018-05-07T08:00:53.817Z,7183.13
2018-05-07T08:01:53.823Z,7065.00
2018-05-07T08:02:53.836Z,7070.63
2018-05-07T08:03:53.864Z,6918.75
2018-05-07T08:04:53.860Z,6879.38
2018-05-07T08:05:53.847Z,6885.00
2018-05-07T08:06:53.853Z,6637.50
2018-05-07T08:07:53.857Z,6648.75
2018-05-07T08:08:53.876Z,6851.25
2018-05-07T08:09:53.875Z,6772.50
2018-05-07T08:10:53.887Z,6733.13
2018-05-07T08:11:53.890Z,6817.50
2018-05-07T08:12:53.902Z,6710.63
2018-05-07T08:13:53.911Z,6361.88
2018-05-07T08:14:53.914Z,6311.25
2018-05-07T08:15:54.601Z,6288.75
2018-05-07T08:16:53.931Z,6350.63
2018-05-07T08:17:53.932Z,6401.25
2018-05-07T08:18:53.942Z,6446.25
2018-05-07T08:19:53.944Z,6699.38
2018-05-07T08:20:54.046Z,6631.88
2018-05-07T08:21:55.684Z,6553.13
2018-05-07T08:22:55.678Z,6643.13
2018-05-07T08:23:55.388Z,6018.75
2018-05-07T08:24:54.116Z,5388.75
2018-05-07T08:25:54.075Z,5776.88
2018-05-07T08:26:54.088Z,6502.50
2018-05-07T08:27:54.162Z,6721.88
2018-05-07T08:28:54.093Z,6643.13
2018-05-07T08:29:54.119Z,6581.25
2018-05-07T08:30:54.113Z,6592.50
2018-05-07T08:31:54.656Z,6547.50
2018-05-07T08:32:54.037Z,6924.38
2018-05-07T08:33:54.047Z,7295.63
2018-05-07T08:34:54.051Z,6840.00
2018-05-07T08:35:54.060Z,6783.75
2018-05-07T08:36:54.067Z,7087.50
2018-05-07T08:37:54.073Z,7104.38
2018-05-07T08:38:54.088Z,6896.25
2018-05-07T08:39:54.091Z,6727.50
2018-05-07T08:40:54.667Z,6868.13
2018-05-07T08:41:54.114Z,7093.13
2018-05-07T08:42:54.110Z,7008.75
2018-05-07T08:43:54.117Z,7228.13
2018-05-07T08:44:54.133Z,7492.50
2018-05-07T08:45:54.136Z,7323.75
2018-05-07T08:46:54.147Z,7087.50
2018-05-07T08:47:54.175Z,7059.38
2018-05-07T08:48:54.159Z,7171.88
2018-05-07T08:49:54.166Z,7267.50
2018-05-07T08:50:54.208Z,7368.75
2018-05-07T08:51:54.192Z,7194.38
2018-05-07T08:52:54.254Z,6575.63
2018-05-07T08:53:54.206Z,6423.75
2018-05-07T08:54:54.207Z,6716.25
2018-05-07T08:55:54.225Z,6907.50
2018-05-07T08:56:54.225Z,7200.00
2018-05-07T08:57:54.239Z,7346.25
2018-05-07T08:58:54.239Z,7706.25
2018-05-07T08:59:54.247Z,8206.88
2018-05-07T09:00:54.256Z,7981.88
2018-05-07T09:01:54.274Z,7498.13
2018-05-07T09:02:54.280Z,6986.25
2018-05-07T09:03:54.283Z,7115.63
2018-05-07T09:04:54.291Z,7582.50
2018-05-07T09:05:54.295Z,7633.13
2018-05-07T09:06:54.305Z,7683.75
2018-05-07T09:07:54.312Z,7239.38
2018-05-07T09:08:54.319Z,6575.63
2018-05-07T09:09:54.331Z,6654.38
2018-05-07T09:10:54.342Z,7171.88
2018-05-07T09:11:54.368Z,6986.25
2018-05-07T09:12:54.362Z,6575.63
2018-05-07T09:13:54.369Z,6451.88
2018-05-07T09:14:54.375Z,6558.75
2018-05-07T09:15:54.381Z,6806.25
2018-05-07T09:16:54.394Z,6896.25
2018-05-07T09:17:54.406Z,6856.88
2018-05-07T09:18:54.427Z,6806.25
2018-05-07T09:19:54.417Z,6896.25
2018-05-07T09:20:54.423Z,6980.63
2018-05-07T09:21:54.429Z,7020.00
2018-05-07T09:22:54.443Z,7110.00
2018-05-07T09:23:54.449Z,7245.00
2018-05-07T09:24:54.501Z,7318.13
2018-05-07T09:25:54.471Z,6935.63
2018-05-07T09:26:54.480Z,6648.75
2018-05-07T09:27:54.494Z,6823.13
2018-05-07T09:28:54.502Z,7290.00
2018-05-07T09:29:54.515Z,7143.75
2018-05-07T09:30:54.517Z,7014.38
2018-05-07T09:31:54.527Z,7318.13
2018-05-07T09:32:54.535Z,7475.63
2018-05-07T09:33:54.553Z,7233.75
2018-05-07T09:34:54.554Z,6963.75
2018-05-07T09:35:54.564Z,6851.25
2018-05-07T09:36:55.220Z,6952.50
2018-05-07T09:37:54.576Z,7194.38
2018-05-07T09:38:54.588Z,7346.25
2018-05-07T09:39:54.601Z,6553.13
2018-05-07T09:40:54.610Z,6181.88
2018-05-07T09:41:54.620Z,6643.13
2018-05-07T09:42:54.708Z,7548.75
2018-05-07T09:43:54.635Z,7756.88
2018-05-07T09:44:54.644Z,7126.88
2018-05-07T09:45:54.660Z,6811.88
2018-05-07T09:46:54.665Z,6705.00
2018-05-07T09:47:54.677Z,6772.50
2018-05-07T09:48:54.757Z,7031.25
2018-05-07T09:49:54.691Z,6980.63
2018-05-07T09:50:54.709Z,6806.25
2018-05-07T09:51:54.713Z,6918.75
2018-05-07T09:52:54.724Z,7076.25
2018-05-07T09:53:54.739Z,7025.63
2018-05-07T09:54:54.740Z,6918.75
2018-05-07T09:55:54.746Z,6879.38
2018-05-07T09:56:54.837Z,7042.50
2018-05-07T09:57:54.766Z,7160.63
2018-05-07T09:58:54.778Z,7329.38
2018-05-07T09:59:54.799Z,7205.63
2018-05-07T10:00:54.798Z,7149.38
2018-05-07T10:01:54.809Z,7486.88
2018-05-07T10:02:54.816Z,7335.00
2018-05-07T10:03:54.834Z,7048.13
2018-05-07T10:04:54.835Z,7020.00
2018-05-07T10:05:54.845Z,6766.88
2018-05-07T10:06:54.856Z,6609.38
2018-05-07T10:07:54.867Z,6721.88
2018-05-07T10:08:54.883Z,6547.50
2018-05-07T10:09:54.895Z,6406.88
2018-05-07T10:10:54.901Z,6406.88
2018-05-07T10:11:54.907Z,6345.00
2018-05-07T10:12:54.925Z,6423.75
2018-05-07T10:13:54.926Z,6631.88
2018-05-07T10:14:54.941Z,6648.75
2018-05-07T10:15:55.694Z,6598.13
2018-05-07T10:16:54.959Z,6806.25
2018-05-07T10:17:54.964Z,7250.63
2018-05-07T10:18:54.974Z,7188.75
2018-05-07T10:19:54.989Z,7318.13
2018-05-07T10:20:55.001Z,7110.00
2018-05-07T10:21:55.019Z,6907.50
2018-05-07T10:22:55.027Z,6693.75
2018-05-07T10:23:55.029Z,6615.00
2018-05-07T10:24:55.041Z,6693.75
2018-05-07T10:25:55.053Z,6665.63
2018-05-07T10:26:55.058Z,6316.88
2018-05-07T10:27:55.074Z,5754.38
2018-05-07T10:28:55.078Z,6001.88
2018-05-07T10:29:55.112Z,6654.38
2018-05-07T10:30:55.099Z,6676.88
2018-05-07T10:31:55.109Z,6418.13
2018-05-07T10:32:55.121Z,6541.88
2018-05-07T10:33:55.131Z,6266.25
2018-05-07T10:34:55.146Z,6007.50
2018-05-07T10:35:55.152Z,6418.13
2018-05-07T10:36:55.184Z,6811.88
2018-05-07T10:37:55.176Z,6885.00
2018-05-07T10:38:55.180Z,6772.50
2018-05-07T10:39:55.200Z,6603.75
2018-05-07T10:40:55.210Z,6541.88
2018-05-07T10:41:55.216Z,6395.63
2018-05-07T10:42:55.226Z,6103.13
2018-05-07T10:43:55.234Z,6125.63
2018-05-07T10:44:55.246Z,6390.00
2018-05-07T10:45:55.252Z,6631.88
2018-05-07T10:46:55.269Z,6761.25
2018-05-07T10:47:55.297Z,6626.25
2018-05-07T10:48:55.293Z,6361.88
2018-05-07T10:49:55.306Z,6305.63
2018-05-07T10:50:55.306Z,6215.63
2018-05-07T10:51:55.314Z,5709.38
2018-05-07T10:52:55.332Z,5405.63
2018-05-07T10:53:55.339Z,5411.25
2018-05-07T10:54:55.344Z,5686.88
2018-05-07T10:55:55.354Z,5928.75
2018-05-07T10:56:55.370Z,5945.63
2018-05-07T10:57:55.372Z,5985.00
2018-05-07T10:58:55.391Z,6058.13
2018-05-07T10:59:55.397Z,6187.50
2018-05-07T11:00:55.405Z,6170.63
2018-05-07T11:01:55.415Z,5805.00
2018-05-07T11:02:55.425Z,5512.50
2018-05-07T11:03:55.436Z,5861.25
2018-05-07T11:04:55.500Z,6288.75
2018-05-07T11:05:55.456Z,6080.63
2018-05-07T11:06:55.473Z,5866.88
2018-05-07T11:07:55.478Z,5951.25
2018-05-07T11:08:55.488Z,5962.50
2018-05-07T11:09:55.513Z,5990.63
2018-05-07T11:10:55.508Z,5940.00
2018-05-07T11:11:55.522Z,5945.63
2018-05-07T11:12:55.526Z,6294.38
2018-05-07T11:13:55.537Z,6468.75
2018-05-07T11:14:55.543Z,6226.88
2018-05-07T11:15:55.557Z,5990.63
2018-05-07T11:16:55.569Z,5872.50
2018-05-07T11:17:55.585Z,5855.63
2018-05-07T11:18:55.589Z,5821.88
2018-05-07T11:19:55.596Z,5793.75
2018-05-07T11:20:56.243Z,5737.50
2018-05-07T11:21:55.614Z,5523.75
2018-05-07T11:22:55.626Z,5456.25
2018-05-07T11:23:55.637Z,5625.00
2018-05-07T11:24:55.646Z,5675.63
2018-05-07T11:25:55.657Z,5484.38
2018-05-07T11:26:55.664Z,5737.50
2018-05-07T11:27:55.671Z,5895.00
2018-05-07T11:28:55.687Z,5979.38
2018-05-07T11:29:55.696Z,5968.13
2018-05-07T11:30:55.707Z,5844.38
2018-05-07T11:31:55.715Z,5771.25
2018-05-07T11:32:55.722Z,5709.38
2018-05-07T11:33:55.734Z,5461.88
2018-05-07T11:34:55.744Z,5180.63
2018-05-07T11:35:55.755Z,5113.13
2018-05-07T11:36:55.774Z,5225.63
2018-05-07T11:37:55.772Z,5338.13
2018-05-07T11:38:55.784Z,5366.25
2018-05-07T11:39:55.787Z,5461.88
2018-05-07T11:40:55.798Z,5490.00
2018-05-07T11:41:55.808Z,5506.88
2018-05-07T11:42:55.819Z,5557.50
2018-05-07T11:43:55.828Z,5450.63
2018-05-07T11:44:55.842Z,5338.13
2018-05-07T11:45:55.848Z,5287.50
2018-05-07T11:46:55.855Z,5225.63
2018-05-07T11:47:55.874Z,5259.38
2018-05-07T11:48:55.883Z,5231.25
2018-05-07T11:49:55.888Z,5180.63
2018-05-07T11:50:55.899Z,5056.88
2018-05-07T11:51:55.904Z,5000.63
2018-05-07T11:52:55.916Z,5214.38
2018-05-07T11:53:55.922Z,5495.63
2018-05-07T11:54:55.935Z,5388.75
2018-05-07T11:55:55.943Z,5045.63
2018-05-07T11:56:55.953Z,5085.00
2018-05-07T11:57:55.963Z,5214.38
2018-05-07T11:58:55.980Z,4893.75
2018-05-07T11:59:55.980Z,4612.50
2018-05-07T12:00:55.987Z,4820.63
2018-05-07T12:01:56.002Z,5028.75
2018-05-07T12:02:56.009Z,5107.50
2018-05-07T12:03:56.017Z,5225.63
2018-05-07T12:04:56.028Z,5180.63
2018-05-07T12:05:56.036Z,4736.25
2018-05-07T12:06:56.048Z,4415.63
2018-05-07T12:07:56.051Z,4500.00
2018-05-07T12:08:56.083Z,4809.38
2018-05-07T12:09:56.073Z,4905.00
2018-05-07T12:10:56.084Z,4910.63
2018-05-07T12:11:56.089Z,4741.88
2018-05-07T12:12:56.099Z,4567.50
2018-05-07T12:13:56.107Z,4938.75
2018-05-07T12:14:56.113Z,5101.88
2018-05-07T12:15:56.196Z,4798.13
2018-05-07T12:16:56.145Z,4758.75
2018-05-07T12:17:56.146Z,4770.00
2018-05-07T12:18:56.153Z,4545.00
2018-05-07T12:19:56.179Z,4353.75
2018-05-07T12:20:56.173Z,4415.63
2018-05-07T12:21:56.181Z,4539.38
2018-05-07T12:22:56.186Z,4528.13
2018-05-07T12:23:56.192Z,4567.50
2018-05-07T12:24:56.204Z,4573.13
2018-05-07T12:25:56.213Z,4471.88
2018-05-07T12:26:56.221Z,4455.00
2018-05-07T12:27:56.229Z,4421.25
2018-05-07T12:28:56.240Z,4415.63
2018-05-07T12:29:56.256Z,4404.38
2018-05-07T12:30:56.262Z,4320.00